createdAt,value
2022-08-09T00:00:05.833Z,20.26
2022-08-09T00:02:49.301Z,20.21
2022-08-09T00:06:18.497Z,20.16
2022-08-09T00:08:31.565Z,20.17
2022-08-09T00:10:59.424Z,20.11
2022-08-09T00:13:28.201Z,20.10
2022-08-09T00:16:02.649Z,20.08
2022-08-09T00:18:35.694Z,20.05
2022-08-09T00:21:08.647Z,20.03
2022-08-09T00:23:57.894Z,20.02
2022-08-09T00:26:32.262Z,19.99
2022-08-09T00:29:03.843Z,19.96
2022-08-09T00:31:57.081Z,19.91
2022-08-09T00:34:26.605Z,19.88
2022-08-09T00:36:53.523Z,19.86
2022-08-09T00:40:12.293Z,19.84
2022-08-09T00:44:16.717Z,19.79
2022-08-09T00:44:55.822Z,19.75
2022-08-09T00:47:24.795Z,19.72
2022-08-09T00:49:54.788Z,19.70
2022-08-09T00:52:30.551Z,19.68
2022-08-09T00:55:01.264Z,19.64
2022-08-09T00:57:34.555Z,19.58
2022-08-09T01:00:21.725Z,19.53
2022-08-09T01:03:01.963Z,19.52
2022-08-09T01:05:51.936Z,19.49
2022-08-09T01:08:48.906Z,19.47
2022-08-09T01:11:56.047Z,19.42
2022-08-09T01:14:41.674Z,19.37
2022-08-09T01:17:19.484Z,19.31
2022-08-09T01:20:02.742Z,19.28
2022-08-09T01:22:52.100Z,19.24
2022-08-09T01:25:42.223Z,19.21
2022-08-09T01:28:17.147Z,19.19
2022-08-09T01:30:51.905Z,19.18
2022-08-09T01:33:24.416Z,19.15
2022-08-09T01:36:13.703Z,19.11
2022-08-09T01:38:46.585Z,19.10
2022-08-09T01:41:14.589Z,19.10
2022-08-09T01:43:50.549Z,19.11
2022-08-09T01:46:27.137Z,19.11
2022-08-09T01:48:59.793Z,19.09
2022-08-09T01:51:32.156Z,19.08
2022-08-09T01:54:02.744Z,19.05
2022-08-09T01:56:36.410Z,19.00
2022-08-09T01:59:10.391Z,19.00
2022-08-09T02:01:59.278Z,18.99
2022-08-09T02:04:28.621Z,18.95
2022-08-09T02:07:17.884Z,18.95
2022-08-09T02:10:13.781Z,18.95
2022-08-09T02:12:44.714Z,18.94
2022-08-09T02:15:16.797Z,18.96
2022-08-09T02:18:01.445Z,18.93
2022-08-09T02:20:45.448Z,18.93
2022-08-09T02:23:42.748Z,18.92
2022-08-09T02:26:27.287Z,18.93
2022-08-09T02:28:59.987Z,18.90
2022-08-09T02:31:41.138Z,18.90
2022-08-09T02:34:25.738Z,18.88
2022-08-09T02:37:06.862Z,18.86
2022-08-09T02:39:45.270Z,18.85
2022-08-09T02:42:24.870Z,18.86
2022-08-09T02:45:07.848Z,18.86
2022-08-09T02:47:57.420Z,18.83
2022-08-09T02:50:29.514Z,18.79
2022-08-09T02:53:25.715Z,18.79
2022-08-09T02:55:57.923Z,18.77
2022-08-09T02:58:36.805Z,18.76
2022-08-09T03:01:11.066Z,18.75
2022-08-09T03:04:17.131Z,18.75
2022-08-09T03:06:33.110Z,18.75
2022-08-09T03:09:01.803Z,18.75
2022-08-09T03:11:29.778Z,18.73
2022-08-09T03:14:18.381Z,18.70
2022-08-09T03:16:48.210Z,18.70
2022-08-09T03:19:52.418Z,18.69
2022-08-09T03:22:12.086Z,18.69
2022-08-09T03:24:52.722Z,18.68
2022-08-09T03:27:45.186Z,18.65
2022-08-09T03:30:14.234Z,18.64
2022-08-09T03:32:57.593Z,18.66
2022-08-09T03:35:44.306Z,18.70
2022-08-09T03:38:16.097Z,18.72
2022-08-09T03:40:56.015Z,18.72
2022-08-09T03:43:22.855Z,18.75
2022-08-09T03:46:13.687Z,18.76
2022-08-09T03:48:43.042Z,18.77
2022-08-09T03:51:56.040Z,18.76
2022-08-09T03:54:10.897Z,18.77
2022-08-09T03:56:41.208Z,18.79
2022-08-09T03:59:21.085Z,18.78
2022-08-09T04:01:59.272Z,18.79
2022-08-09T04:04:36.167Z,18.80
2022-08-09T04:07:06.499Z,18.78
2022-08-09T04:09:44.445Z,18.79
2022-08-09T04:12:44.663Z,18.80
2022-08-09T04:15:17.258Z,18.80
2022-08-09T04:18:00.462Z,18.81
2022-08-09T04:20:28.887Z,18.82
2022-08-09T04:22:56.236Z,18.85
2022-08-09T04:25:23.444Z,18.85
2022-08-09T04:27:50.384Z,18.83
2022-08-09T04:30:20.903Z,18.81
2022-08-09T04:32:51.256Z,18.79
2022-08-09T04:35:21.798Z,18.79
2022-08-09T04:37:49.890Z,18.78
2022-08-09T04:40:28.934Z,18.77
2022-08-09T04:43:04.030Z,18.77
2022-08-09T04:45:35.956Z,18.77
2022-08-09T04:48:19.710Z,18.75
2022-08-09T04:50:46.590Z,18.72
2022-08-09T04:53:17.285Z,18.73
2022-08-09T04:55:58.260Z,18.73
2022-08-09T04:58:29.850Z,18.77
2022-08-09T05:01:00.040Z,18.81
2022-08-09T05:03:40.034Z,18.84
2022-08-09T05:06:11.314Z,18.87
2022-08-09T05:08:38.893Z,18.85
2022-08-09T05:11:14.643Z,18.84
2022-08-09T05:13:43.228Z,18.83
2022-08-09T05:16:10.329Z,18.85
2022-08-09T05:18:57.376Z,18.87
2022-08-09T05:21:29.796Z,18.96
2022-08-09T05:24:01.498Z,19.02
2022-08-09T05:26:37.166Z,19.04
2022-08-09T05:29:21.483Z,19.08
2022-08-09T05:31:57.521Z,19.11
2022-08-09T05:34:31.694Z,19.16
2022-08-09T05:37:05.970Z,19.22
2022-08-09T05:39:43.153Z,19.27
2022-08-09T05:42:21.009Z,19.32
2022-08-09T05:44:54.134Z,19.38
2022-08-09T05:47:23.323Z,19.42
2022-08-09T05:50:32.393Z,19.46
2022-08-09T05:52:44.238Z,19.50
2022-08-09T05:55:20.668Z,19.53
2022-08-09T05:57:57.659Z,19.57
2022-08-09T06:00:28.760Z,19.61
2022-08-09T06:03:01.512Z,19.65
2022-08-09T06:05:50.408Z,19.66
2022-08-09T06:08:19.900Z,19.67
2022-08-09T06:10:57.094Z,19.67
2022-08-09T06:13:28.276Z,19.68
2022-08-09T06:16:05.340Z,19.70
2022-08-09T06:18:33.769Z,19.71
2022-08-09T06:21:02.055Z,19.73
2022-08-09T06:23:55.209Z,19.74
2022-08-09T06:26:22.765Z,19.75
2022-08-09T06:28:59.266Z,19.78
2022-08-09T06:31:30.708Z,19.82
2022-08-09T06:33:58.790Z,19.86
2022-08-09T06:36:27.210Z,19.88
2022-08-09T06:38:57.933Z,19.90
2022-08-09T06:42:07.688Z,19.94
2022-08-09T06:44:18.387Z,19.97
2022-08-09T06:46:45.829Z,20.03
2022-08-09T06:49:16.217Z,20.10
2022-08-09T06:51:49.757Z,20.13
2022-08-09T06:54:18.161Z,20.18
2022-08-09T06:56:47.352Z,20.24
2022-08-09T07:00:54.267Z,20.32
2022-08-09T07:02:04.407Z,20.40
2022-08-09T07:04:32.596Z,20.49
2022-08-09T07:07:00.185Z,20.56
2022-08-09T07:09:54.954Z,20.65
2022-08-09T07:12:17.996Z,20.75
2022-08-09T07:14:51.053Z,20.80
2022-08-09T07:17:20.181Z,20.86
2022-08-09T07:19:50.847Z,20.92
2022-08-09T07:22:34.946Z,21.00
2022-08-09T07:25:09.682Z,21.09
2022-08-09T07:27:43.113Z,21.15
2022-08-09T07:30:21.734Z,21.24
2022-08-09T07:32:52.449Z,21.32
2022-08-09T07:35:19.648Z,21.40
2022-08-09T07:37:49.127Z,21.46
2022-08-09T07:40:20.485Z,21.52
2022-08-09T07:42:59.971Z,21.57
2022-08-09T07:45:40.257Z,21.64
2022-08-09T07:48:29.590Z,21.72
2022-08-09T07:51:09.639Z,21.82
2022-08-09T07:54:05.671Z,21.87
2022-08-09T07:56:36.951Z,21.92
2022-08-09T07:59:12.490Z,21.97
2022-08-09T08:01:43.213Z,22.05
2022-08-09T08:04:20.287Z,22.14
2022-08-09T08:07:00.142Z,22.24
2022-08-09T08:09:42.955Z,22.36
2022-08-09T08:12:27.954Z,22.50
2022-08-09T08:14:56.167Z,22.60
2022-08-09T08:17:54.197Z,22.69
2022-08-09T08:20:13.271Z,22.78
2022-08-09T08:22:41.150Z,22.82
2022-08-09T08:25:13.516Z,22.87
2022-08-09T08:27:43.096Z,22.92
2022-08-09T08:30:13.852Z,23.06
2022-08-09T08:32:53.514Z,23.15
2022-08-09T08:35:22.270Z,23.24
2022-08-09T08:38:02.110Z,23.29
2022-08-09T08:40:36.895Z,23.37
2022-08-09T08:43:08.917Z,23.42
2022-08-09T08:45:59.616Z,23.52
2022-08-09T08:48:38.172Z,23.65
2022-08-09T08:51:18.472Z,23.77
2022-08-09T08:54:03.289Z,23.83
2022-08-09T08:56:38.214Z,23.88
2022-08-09T08:59:19.939Z,23.93
2022-08-09T09:01:53.181Z,23.98
2022-08-09T09:04:31.952Z,24.00
2022-08-09T09:07:10.373Z,24.02
2022-08-09T09:09:59.653Z,24.04
2022-08-09T09:12:34.341Z,24.04
2022-08-09T09:15:03.771Z,24.06
2022-08-09T09:17:48.652Z,24.13
2022-08-09T09:20:21.195Z,24.22
2022-08-09T09:23:01.996Z,24.27
2022-08-09T09:26:03.500Z,24.29
2022-08-09T09:28:21.407Z,24.40
2022-08-09T09:31:17.502Z,24.47
2022-08-09T09:34:21.272Z,24.58
2022-08-09T09:36:54.259Z,24.64
2022-08-09T09:39:50.169Z,24.76
2022-08-09T09:42:27.926Z,24.76
2022-08-09T09:45:05.985Z,24.73
2022-08-09T09:47:47.662Z,24.79
2022-08-09T09:50:23.424Z,24.84
2022-08-09T09:52:56.067Z,24.84
2022-08-09T09:55:27.913Z,24.91
2022-08-09T09:58:17.106Z,24.91
2022-08-09T10:00:55.841Z,24.89
2022-08-09T10:03:56.260Z,24.93
2022-08-09T10:06:25.676Z,24.96
2022-08-09T10:09:21.862Z,25.02
2022-08-09T10:12:14.355Z,25.13
2022-08-09T10:14:47.816Z,25.22
2022-08-09T10:17:50.550Z,25.21
2022-08-09T10:20:26.961Z,25.13
2022-08-09T10:23:23.769Z,25.13
2022-08-09T10:26:06.554Z,25.14
2022-08-09T10:28:38.587Z,25.16
2022-08-09T10:34:11.450Z,25.36
2022-08-09T10:36:43.701Z,25.39
2022-08-09T10:39:15.768Z,25.40
2022-08-09T10:41:46.256Z,25.44
2022-08-09T10:44:23.152Z,25.42
2022-08-09T10:48:20.215Z,25.47
2022-08-09T10:50:30.780Z,25.56
2022-08-09T10:53:19.931Z,25.64
2022-08-09T10:55:58.340Z,25.71
2022-08-09T10:58:35.069Z,25.81
2022-08-09T11:03:06.654Z,25.91
2022-08-09T11:04:30.141Z,26.00
2022-08-09T11:06:59.602Z,26.07
2022-08-09T11:09:41.419Z,26.10
2022-08-09T11:12:18.950Z,26.16
2022-08-09T11:14:55.793Z,26.27
2022-08-09T11:17:27.155Z,26.37
2022-08-09T11:20:11.776Z,26.44
2022-08-09T11:22:41.661Z,26.60
2022-08-09T11:25:13.112Z,26.88
2022-08-09T11:28:05.537Z,27.19
2022-08-09T11:30:37.592Z,27.62
2022-08-09T11:33:24.702Z,27.95
2022-08-09T11:36:00.648Z,28.32
2022-08-09T11:38:33.157Z,28.63
2022-08-09T11:41:13.125Z,28.80
2022-08-09T11:43:52.909Z,28.68
2022-08-09T11:46:33.299Z,28.54
2022-08-09T11:49:05.275Z,28.54
2022-08-09T11:52:56.354Z,28.59
2022-08-09T11:55:34.999Z,28.74
2022-08-09T11:58:19.881Z,28.95
2022-08-09T12:01:37.462Z,29.21
2022-08-09T12:04:01.844Z,29.43
2022-08-09T12:06:32.113Z,29.56
2022-08-09T12:09:01.775Z,29.56
2022-08-09T12:11:30.211Z,29.47
2022-08-09T12:14:28.761Z,29.48
2022-08-09T12:16:59.079Z,29.59
2022-08-09T12:19:32.223Z,29.76
2022-08-09T12:22:06.331Z,30.02
2022-08-09T12:24:33.134Z,30.26
2022-08-09T12:29:14.327Z,30.48
2022-08-09T12:30:00.039Z,30.74
2022-08-09T12:32:32.047Z,30.92
2022-08-09T12:35:04.609Z,31.14
2022-08-09T12:37:49.981Z,31.31
2022-08-09T12:40:19.081Z,31.32
2022-08-09T12:42:50.499Z,31.26
2022-08-09T12:45:32.725Z,31.24
2022-08-09T12:48:11.051Z,31.01
2022-08-09T12:50:53.814Z,30.70
2022-08-09T12:53:38.601Z,30.44
2022-08-09T12:56:37.027Z,30.10
2022-08-09T12:59:14.022Z,29.77
2022-08-09T13:01:49.847Z,29.45
2022-08-09T13:04:37.039Z,29.27
2022-08-09T13:07:14.731Z,29.05
2022-08-09T13:09:43.278Z,28.87
2022-08-09T13:12:20.277Z,28.66
2022-08-09T13:14:53.783Z,28.62
2022-08-09T13:17:44.489Z,28.85
2022-08-09T13:20:16.308Z,28.70
2022-08-09T13:23:05.801Z,28.53
2022-08-09T13:25:42.441Z,28.33
2022-08-09T13:28:18.842Z,28.09
2022-08-09T13:32:14.018Z,27.87
2022-08-09T13:33:55.086Z,27.68
2022-08-09T13:36:37.871Z,27.43
2022-08-09T13:41:55.144Z,27.24
2022-08-09T13:42:00.913Z,27.12
2022-08-09T13:44:29.411Z,27.02
2022-08-09T13:47:26.575Z,27.00
2022-08-09T13:49:57.532Z,27.13
2022-08-09T13:52:28.684Z,27.53
2022-08-09T13:55:00.935Z,27.56
2022-08-09T13:57:40.048Z,27.88
2022-08-09T14:00:15.472Z,28.33
2022-08-09T14:03:03.732Z,28.66
2022-08-09T14:05:59.767Z,29.15
2022-08-09T14:08:28.091Z,29.50
2022-08-09T14:10:55.906Z,29.77
2022-08-09T14:14:16.305Z,29.99
2022-08-09T14:16:15.580Z,30.21
2022-08-09T14:18:49.811Z,30.34
2022-08-09T14:21:22.636Z,30.51
2022-08-09T14:23:56.539Z,30.65
2022-08-09T14:26:30.483Z,30.67
2022-08-09T14:29:07.814Z,30.70
2022-08-09T14:32:19.604Z,30.79
2022-08-09T14:34:56.777Z,30.83
2022-08-09T14:37:28.344Z,30.96
2022-08-09T14:40:28.211Z,31.06
2022-08-09T14:43:10.581Z,31.06
2022-08-09T14:46:55.436Z,30.99
2022-08-09T14:48:32.431Z,30.98
2022-08-09T14:50:59.757Z,30.99
2022-08-09T14:53:26.534Z,31.01
2022-08-09T14:55:53.566Z,30.84
2022-08-09T14:58:21.536Z,30.71
2022-08-09T15:00:51.142Z,30.82
2022-08-09T15:03:20.619Z,30.90
2022-08-09T15:05:51.422Z,30.92
2022-08-09T15:08:24.192Z,30.76
2022-08-09T15:11:00.494Z,30.67
2022-08-09T15:13:47.861Z,30.71
2022-08-09T15:16:15.931Z,30.83
2022-08-09T15:18:43.054Z,30.97
2022-08-09T15:21:57.382Z,31.06
2022-08-09T15:24:09.147Z,30.93
2022-08-09T15:26:45.142Z,30.90
2022-08-09T15:30:48.536Z,30.80
2022-08-09T15:31:59.825Z,30.79
2022-08-09T15:34:34.469Z,30.72
2022-08-09T15:37:23.631Z,30.67
2022-08-09T15:39:53.841Z,30.60
2022-08-09T15:42:21.915Z,30.51
2022-08-09T15:44:49.963Z,30.42
2022-08-09T15:47:22.842Z,30.12
2022-08-09T15:50:04.358Z,29.79
2022-08-09T15:52:34.534Z,29.49
2022-08-09T15:55:04.618Z,29.20
2022-08-09T15:57:34.480Z,28.86
2022-08-09T16:00:14.522Z,28.64
2022-08-09T16:02:53.533Z,28.47
2022-08-09T16:05:23.879Z,28.28
2022-08-09T16:07:51.275Z,28.12
2022-08-09T16:10:38.573Z,28.07
2022-08-09T16:13:21.111Z,28.12
2022-08-09T16:16:10.698Z,28.11
2022-08-09T16:18:45.173Z,27.90
2022-08-09T16:21:17.533Z,27.84
2022-08-09T16:23:55.688Z,27.87
2022-08-09T16:26:34.778Z,27.74
2022-08-09T16:29:11.736Z,27.62
2022-08-09T16:32:19.749Z,27.61
2022-08-09T16:34:56.152Z,27.55
2022-08-09T16:37:20.442Z,27.45
2022-08-09T16:40:10.077Z,27.43
2022-08-09T16:42:37.849Z,27.37
2022-08-09T16:45:07.820Z,27.27
2022-08-09T16:48:39.464Z,27.11
2022-08-09T16:50:29.302Z,26.89
2022-08-09T16:52:58.011Z,26.68
2022-08-09T16:55:24.947Z,26.48
2022-08-09T16:58:08.841Z,26.30
2022-08-09T17:00:42.875Z,26.09
2022-08-09T17:03:13.184Z,25.91
2022-08-09T17:06:06.739Z,25.73
2022-08-09T17:08:44.475Z,25.52
2022-08-09T17:11:40.812Z,25.29
2022-08-09T17:14:25.467Z,25.15
2022-08-09T17:17:02.990Z,25.01
2022-08-09T17:20:05.980Z,24.83
2022-08-09T17:22:23.948Z,24.64
2022-08-09T17:25:03.479Z,24.50
2022-08-09T17:27:38.216Z,24.42
2022-08-09T17:30:14.167Z,24.32
2022-08-09T17:32:44.218Z,24.24
2022-08-09T17:35:14.951Z,24.17
2022-08-09T17:38:11.634Z,24.09
2022-08-09T17:40:34.657Z,23.98
2022-08-09T17:43:32.173Z,23.87
2022-08-09T17:46:03.904Z,23.77
2022-08-09T17:48:39.668Z,23.70
2022-08-09T17:51:18.266Z,23.65
2022-08-09T17:53:51.863Z,23.58
2022-08-09T17:56:27.403Z,23.51
2022-08-09T17:59:03.142Z,23.44
2022-08-09T18:01:57.806Z,23.32
2022-08-09T18:04:24.594Z,23.24
2022-08-09T18:06:54.836Z,23.18
2022-08-09T18:09:23.649Z,23.10
2022-08-09T18:12:05.708Z,23.04
2022-08-09T18:14:49.910Z,22.95
2022-08-09T18:18:01.174Z,22.86
2022-08-09T18:21:01.830Z,22.76
2022-08-09T18:22:55.540Z,22.69
2022-08-09T18:25:53.423Z,22.63
2022-08-09T18:28:21.488Z,22.58
2022-08-09T18:30:57.750Z,22.52
2022-08-09T18:33:24.940Z,22.47
2022-08-09T18:35:59.061Z,22.43
2022-08-09T18:38:28.245Z,22.38
2022-08-09T18:40:55.794Z,22.33
2022-08-09T18:43:24.787Z,22.26
2022-08-09T18:46:50.613Z,22.19
2022-08-09T18:48:42.338Z,22.12
2022-08-09T18:51:09.885Z,22.07
2022-08-09T18:53:59.596Z,21.95
2022-08-09T18:56:27.106Z,21.82
2022-08-09T18:58:56.894Z,21.78
2022-08-09T19:01:24.640Z,21.76
2022-08-09T19:04:01.427Z,21.75
2022-08-09T19:06:34.209Z,21.73
2022-08-09T19:09:04.726Z,21.70
2022-08-09T19:11:35.222Z,21.63
2022-08-09T19:14:06.981Z,21.61
2022-08-09T19:16:37.874Z,21.60
2022-08-09T19:19:23.798Z,21.60
2022-08-09T19:22:04.159Z,21.57
2022-08-09T19:24:38.667Z,21.55
2022-08-09T19:27:21.855Z,21.53
2022-08-09T19:30:24.808Z,21.53
2022-08-09T19:32:36.944Z,21.52
2022-08-09T19:35:04.838Z,21.49
2022-08-09T19:37:41.112Z,21.45
2022-08-09T19:40:19.844Z,21.43
2022-08-09T19:42:47.474Z,21.40
2022-08-09T19:45:17.829Z,21.38
2022-08-09T19:47:45.853Z,21.37
2022-08-09T19:50:50.946Z,21.34
2022-08-09T19:53:02.573Z,21.36
2022-08-09T19:56:01.888Z,21.34
2022-08-09T19:58:29.976Z,21.26
2022-08-09T20:00:58.539Z,21.21
2022-08-09T20:04:14.535Z,21.20
2022-08-09T20:06:23.527Z,21.17
2022-08-09T20:08:57.664Z,21.14
2022-08-09T20:11:27.309Z,21.13
2022-08-09T20:14:15.313Z,21.13
2022-08-09T20:16:53.800Z,21.13
2022-08-09T20:19:48.096Z,21.10
2022-08-09T20:22:14.051Z,21.07
2022-08-09T20:24:42.481Z,21.02
2022-08-09T20:27:11.673Z,20.91
2022-08-09T20:29:41.137Z,20.82
2022-08-09T20:32:31.176Z,20.81
2022-08-09T20:34:58.941Z,20.78
2022-08-09T20:38:19.035Z,20.78
2022-08-09T20:40:19.090Z,20.75
2022-08-09T20:42:59.852Z,20.72
2022-08-09T20:46:01.614Z,20.69
2022-08-09T20:48:28.904Z,20.65
2022-08-09T20:50:59.175Z,20.62
2022-08-09T20:53:37.095Z,20.59
2022-08-09T20:56:20.216Z,20.53
2022-08-09T20:58:54.424Z,20.50
2022-08-09T21:01:35.331Z,20.48
2022-08-09T21:05:56.670Z,20.44
2022-08-09T21:07:11.734Z,20.40
2022-08-09T21:09:56.153Z,20.36
2022-08-09T21:15:14.425Z,20.25
2022-08-09T21:18:11.664Z,20.22
2022-08-09T21:20:30.935Z,20.15
2022-08-09T21:22:59.638Z,20.07
2022-08-09T21:25:56.212Z,20.02
2022-08-09T21:28:36.108Z,19.99
2022-08-09T21:31:17.014Z,19.97
2022-08-09T21:33:52.846Z,19.94
2022-08-09T21:36:23.510Z,19.90
2022-08-09T21:38:57.182Z,19.86
2022-08-09T21:42:04.871Z,19.82
2022-08-09T21:44:33.257Z,19.80
2022-08-09T21:47:08.628Z,19.76
2022-08-09T21:49:40.218Z,19.72
2022-08-09T21:52:16.669Z,19.71
2022-08-09T21:54:49.709Z,19.67
2022-08-09T21:57:37.236Z,19.62
2022-08-09T22:00:37.329Z,19.59
2022-08-09T22:03:06.439Z,19.57
2022-08-09T22:05:41.954Z,19.53
2022-08-09T22:08:14.712Z,19.49
2022-08-09T22:11:50.505Z,19.45
2022-08-09T22:13:34.882Z,19.43
2022-08-09T22:16:07.163Z,19.39
2022-08-09T22:18:37.332Z,19.36
2022-08-09T22:21:09.352Z,19.34
2022-08-09T22:24:01.545Z,19.26
2022-08-09T22:26:35.622Z,19.25
2022-08-09T22:29:08.788Z,19.21
2022-08-09T22:31:37.992Z,19.18
2022-08-09T22:34:15.027Z,19.16
2022-08-09T22:36:46.362Z,19.13
2022-08-09T22:39:46.892Z,19.11
2022-08-09T22:42:03.135Z,19.09
2022-08-09T22:44:32.897Z,19.05
2022-08-09T22:48:15.661Z,19.03
2022-08-09T22:49:51.915Z,18.99
2022-08-09T22:52:19.908Z,18.96
2022-08-09T22:54:48.136Z,18.93
2022-08-09T22:57:15.482Z,18.89
2022-08-09T22:59:55.731Z,18.87
2022-08-09T23:02:25.665Z,18.82
2022-08-09T23:04:56.862Z,18.77
2022-08-09T23:10:50.444Z,18.70
2022-08-09T23:13:17.561Z,18.62
2022-08-09T23:16:02.703Z,18.60
2022-08-09T23:22:27.848Z,18.57
2022-08-09T23:29:15.747Z,18.60
2022-08-09T23:31:42.852Z,18.59
2022-08-09T23:34:09.891Z,18.58
2022-08-09T23:36:37.064Z,18.58
2022-08-09T23:39:06.732Z,18.58
2022-08-09T23:41:34.429Z,18.58
2022-08-09T23:44:02.404Z,18.54
2022-08-09T23:46:30.804Z,18.51
2022-08-09T23:48:59.502Z,18.48
2022-08-09T23:51:26.832Z,18.44
2022-08-09T23:53:55.229Z,18.40
2022-08-09T23:56:52.572Z,18.37
2022-08-09T23:59:16.979Z,18.33
